Huvudsida
METAR-TAF:

METAR-TAF

Flygplatser :

Kirkenes flygplats. Høybuktmoen

Kirkenes, Norge

latitud: 69-44N, longitud: 029-54E, höjd: 9 m

Aktuellt väderrapport

Denna rapport gjordes för 21 minuter sedan, klockan 03:50 UTC
Vind 10 kt från väst/nordväst
Temperatur -6°C
Fuktighet 79%
Tryck 987 hPa
Sikt 10 km eller mer
Spridda moln på en höjd av 2300 ft
Brutna moln på en höjd av 4100 ft

METAR: ENKR 190350Z 30010KT 9999 SCT023 BKN041 M06/M09 Q0987 RMK WIND 731FT 32010KT

Tid: 05:11 (04:11 UTC)

Väderprognos

Denna rapport gjordes för 2 timmar och 11 minuter sedan, klockan 02:00 UTC
Prognos gäller från 19 kl. 03 UTC till 19 kl. 12 UTC
Vind 8 kt från väst
Sikt 10 km eller mer
Spridda moln på en höjd av 2000 ft

TAF: ENKR 190200Z 1903/1912 26008KT 9999 SCT020

Aktuella väderrapporter och prognoser från 4000 flygplatser (METAR- och TAF-rapporter).

De tillgängliga stationerna syns som gula och röda prickar på kartan.

För musen över prickarna för att se namnen på stationerna.

Klicka sedan för att få väderrapporter och prognoser.

För att ändra kartan: Klicka på de gröna knapparna med ett svart kors på för att zooma in; den gröna knappen med ett streck på för att zooma ut; eller på de gröna pilarna för angränsande kartor.


METAR-TAF: